Time,TemperatureF,DewpointF,PressureIn,WindDirection,WindDirectionDegrees,WindSpeedMPH,WindSpeedGustMPH,Humidity,HourlyPrecipIn,Conditions,Clouds,dailyrainin,SoftwareType,DateUTC
2013-03-16 00:01:00,64.0,18.0,29.82,West,276,9.0,15.0,17,0.00,,,0.00,,2013-03-16 07:01:00,
2013-03-16 00:11:00,64.0,18.0,29.82,West,276,9.0,15.0,17,0.00,,,0.00,,2013-03-16 07:11:00,
2013-03-16 00:21:00,66.0,19.0,29.79,West,270,14.0,17.0,16,0.00,,,0.00,,2013-03-16 07:21:00,
2013-03-16 00:31:00,65.0,18.0,29.79,West,270,4.0,14.0,16,0.00,,,0.00,,2013-03-16 07:31:00,
2013-03-16 00:41:00,65.0,18.0,29.79,West,270,4.0,14.0,16,0.00,,,0.00,,2013-03-16 07:41:00,
2013-03-16 00:52:00,65.0,18.0,29.79,West,270,4.0,14.0,16,0.00,,,0.00,,2013-03-16 07:52:00,
2013-03-16 01:01:00,62.0,17.0,29.79,West,270,9.0,12.0,17,0.00,,,0.00,,2013-03-16 08:01:00,
2013-03-16 01:11:00,62.0,17.0,29.79,West,270,9.0,12.0,17,0.00,,,0.00,,2013-03-16 08:11:00,
2013-03-16 01:23:00,62.0,17.0,29.79,West,260,11.0,15.0,17,0.00,,,0.00,,2013-03-16 08:23:00,
2013-03-16 01:32:00,60.0,16.0,29.79,West,270,9.0,15.0,18,0.00,,,0.00,,2013-03-16 08:32:00,
2013-03-16 01:41:00,60.0,16.0,29.79,West,270,9.0,15.0,18,0.00,,,0.00,,2013-03-16 08:41:00,
2013-03-16 01:51:00,60.0,16.0,29.79,West,270,9.0,13.0,18,0.00,,,0.00,,2013-03-16 08:51:00,
2013-03-16 02:01:00,60.0,16.0,29.79,West,270,9.0,9.0,18,0.00,,,0.00,,2013-03-16 09:01:00,
2013-03-16 02:11:00,60.0,16.0,29.79,West,270,9.0,9.0,18,0.00,,,0.00,,2013-03-16 09:11:00,
2013-03-16 02:21:00,59.0,16.0,29.79,West,270,6.0,10.0,18,0.00,,,0.00,,2013-03-16 09:21:00,
2013-03-16 02:32:00,59.0,16.0,29.79,West,270,8.0,10.0,18,0.00,,,0.00,,2013-03-16 09:32:00,
2013-03-16 02:42:00,59.0,16.0,29.79,West,270,8.0,10.0,18,0.00,,,0.00,,2013-03-16 09:42:00,
2013-03-16 02:52:00,59.0,16.0,29.76,West,270,9.0,13.0,18,0.00,,,0.00,,2013-03-16 09:52:00,
2013-03-16 03:03:00,61.0,17.0,29.76,West,270,15.0,17.0,18,0.00,,,0.00,,2013-03-16 10:03:00,
2013-03-16 03:11:00,61.0,17.0,29.76,West,270,15.0,17.0,18,0.00,,,0.00,,2013-03-16 10:11:00,
2013-03-16 03:22:00,60.0,16.0,29.76,West,270,12.0,22.0,18,0.00,,,0.00,,2013-03-16 10:22:00,
2013-03-16 03:32:00,58.0,15.0,29.76,West,270,11.0,14.0,18,0.00,,,0.00,,2013-03-16 10:32:00,
2013-03-16 03:52:00,60.0,16.0,29.76,West,270,10.0,16.0,18,0.00,,,0.00,,2013-03-16 10:52:00,
2013-03-16 04:02:00,60.0,16.0,29.76,West,280,9.0,13.0,18,0.00,,,0.00,,2013-03-16 11:02:00,
2013-03-16 04:11:00,60.0,16.0,29.76,West,280,9.0,13.0,18,0.00,,,0.00,,2013-03-16 11:11:00,
2013-03-16 04:21:00,60.0,16.0,29.76,West,270,13.0,16.0,18,0.00,,,0.00,,2013-03-16 11:21:00,
2013-03-16 04:31:00,60.0,16.0,29.76,WNW,291,9.0,13.0,18,0.00,,,0.00,,2013-03-16 11:31:00,
2013-03-16 04:42:00,60.0,16.0,29.76,WNW,291,9.0,13.0,18,0.00,,,0.00,,2013-03-16 11:42:00,
2013-03-16 04:51:00,59.0,16.0,29.76,NW,315,1.0,5.0,18,0.00,,,0.00,,2013-03-16 11:51:00,
2013-03-16 05:01:00,58.0,15.0,29.76,NW,315,1.0,3.0,18,0.00,,,0.00,,2013-03-16 12:01:00,
2013-03-16 05:21:00,60.0,16.0,29.76,WNW,294,6.0,9.0,18,0.00,,,0.00,,2013-03-16 12:21:00,
2013-03-16 05:31:00,59.0,16.0,29.76,West,270,6.0,13.0,18,0.00,,,0.00,,2013-03-16 12:31:00,
2013-03-16 05:42:00,59.0,16.0,29.76,West,270,6.0,13.0,18,0.00,,,0.00,,2013-03-16 12:42:00,
2013-03-16 05:52:00,58.0,15.0,29.76,West,265,9.0,12.0,18,0.00,,,0.00,,2013-03-16 12:52:00,
2013-03-16 06:02:00,58.0,15.0,29.76,West,270,10.0,12.0,18,0.00,,,0.00,,2013-03-16 13:02:00,
2013-03-16 06:21:00,57.0,14.0,29.76,West,270,9.0,12.0,18,0.00,,,0.00,,2013-03-16 13:21:00,
2013-03-16 06:31:00,57.0,14.0,29.76,WSW,258,9.0,12.0,18,0.00,,,0.00,,2013-03-16 13:31:00,
2013-03-16 06:52:00,58.0,15.0,29.76,West,265,9.0,12.0,18,0.00,,,0.00,,2013-03-16 13:52:00,
2013-03-16 07:02:00,57.0,14.0,29.76,West,270,6.0,7.0,18,0.00,,,0.00,,2013-03-16 14:02:00,
2013-03-16 07:22:00,56.0,13.0,29.76,West,270,0.0,2.0,18,0.00,,,0.00,,2013-03-16 14:22:00,
2013-03-16 07:31:00,60.0,16.0,29.76,West,270,10.0,15.0,18,0.00,,,0.00,,2013-03-16 14:31:00,
2013-03-16 07:52:00,62.0,17.0,29.76,West,270,15.0,18.0,17,0.00,,,0.00,,2013-03-16 14:52:00,
2013-03-16 08:02:00,62.0,17.0,29.76,West,270,14.0,18.0,17,0.00,,,0.00,,2013-03-16 15:02:00,
2013-03-16 08:33:00,63.0,18.0,29.79,West,275,9.0,14.0,17,0.00,,,0.00,,2013-03-16 15:33:00,
2013-03-16 08:42:00,63.0,18.0,29.79,West,275,9.0,14.0,17,0.00,,,0.00,,2013-03-16 15:42:00,
2013-03-16 08:53:00,64.0,17.0,29.79,NW,310,7.0,9.0,16,0.00,,,0.00,,2013-03-16 15:53:00,
2013-03-16 09:02:00,65.0,18.0,29.79,WNW,282,6.0,9.0,16,0.00,,,0.00,,2013-03-16 16:02:00,
2013-03-16 09:12:00,65.0,18.0,29.79,WNW,282,6.0,9.0,16,0.00,,,0.00,,2013-03-16 16:12:00,
2013-03-16 09:22:00,65.0,18.0,29.79,West,270,8.0,9.0,16,0.00,,,0.00,,2013-03-16 16:22:00,
2013-03-16 09:32:00,66.0,19.0,29.79,West,270,8.0,12.0,16,0.00,,,0.00,,2013-03-16 16:32:00,
2013-03-16 09:42:00,66.0,19.0,29.79,West,270,8.0,12.0,16,0.00,,,0.00,,2013-03-16 16:42:00,
2013-03-16 09:53:00,67.0,19.0,29.79,West,270,12.0,15.0,16,0.00,,,0.00,,2013-03-16 16:53:00,
2013-03-16 10:02:00,68.0,20.0,29.82,West,270,10.0,15.0,16,0.00,,,0.00,,2013-03-16 17:02:00,
2013-03-16 10:12:00,68.0,20.0,29.82,West,270,10.0,15.0,16,0.00,,,0.00,,2013-03-16 17:12:00,
2013-03-16 10:22:00,69.0,21.0,29.82,NW,308,7.0,13.0,16,0.00,,,0.00,,2013-03-16 17:22:00,
2013-03-16 10:32:00,68.0,20.0,29.82,West,276,12.0,15.0,16,0.00,,,0.00,,2013-03-16 17:32:00,
2013-03-16 10:41:00,68.0,20.0,29.82,West,276,12.0,15.0,16,0.00,,,0.00,,2013-03-16 17:41:00,
2013-03-16 10:52:00,69.0,21.0,29.82,West,274,13.0,17.0,16,0.00,,,0.00,,2013-03-16 17:52:00,
2013-03-16 11:01:00,69.0,21.0,29.82,West,270,14.0,18.0,16,0.00,,,0.00,,2013-03-16 18:01:00,
2013-03-16 11:12:00,69.0,21.0,29.82,West,270,14.0,18.0,16,0.00,,,0.00,,2013-03-16 18:12:00,
2013-03-16 11:22:00,69.0,21.0,29.82,West,275,14.0,17.0,16,0.00,,,0.00,,2013-03-16 18:22:00,
2013-03-16 11:32:00,69.0,21.0,29.82,West,270,14.0,17.0,16,0.00,,,0.00,,2013-03-16 18:32:00,
2013-03-16 11:43:00,69.0,21.0,29.82,West,270,14.0,17.0,16,0.00,,,0.00,,2013-03-16 18:43:00,
2013-03-16 11:52:00,70.0,20.0,29.82,WNW,283,13.0,15.0,15,0.00,,,0.00,,2013-03-16 18:52:00,
2013-03-16 12:01:00,71.0,21.0,29.82,West,270,9.0,12.0,15,0.00,,,0.00,,2013-03-16 19:01:00,
2013-03-16 12:11:00,71.0,21.0,29.82,West,270,9.0,12.0,15,0.00,,,0.00,,2013-03-16 19:11:00,
2013-03-16 12:21:00,74.0,22.0,29.82,West,270,9.0,13.0,14,0.00,,,0.00,,2013-03-16 19:21:00,
2013-03-16 12:32:00,73.0,21.0,29.82,WNW,289,10.0,13.0,14,0.00,,,0.00,,2013-03-16 19:32:00,
2013-03-16 12:41:00,73.0,21.0,29.82,WNW,289,10.0,13.0,14,0.00,,,0.00,,2013-03-16 19:41:00,
2013-03-16 12:52:00,73.0,21.0,29.82,WNW,289,10.0,13.0,14,0.00,,,0.00,,2013-03-16 19:52:00,
2013-03-16 13:02:00,76.0,23.0,29.82,West,275,9.0,14.0,14,0.00,,,0.00,,2013-03-16 20:02:00,
2013-03-16 13:11:00,76.0,23.0,29.82,West,275,9.0,14.0,14,0.00,,,0.00,,2013-03-16 20:11:00,
2013-03-16 13:21:00,76.0,23.0,29.82,West,270,11.0,15.0,14,0.00,,,0.00,,2013-03-16 20:21:00,
2013-03-16 13:32:00,76.0,23.0,29.82,West,281,10.0,13.0,14,0.00,,,0.00,,2013-03-16 20:32:00,
2013-03-16 13:41:00,76.0,23.0,29.82,West,281,10.0,13.0,14,0.00,,,0.00,,2013-03-16 20:41:00,
2013-03-16 13:52:00,77.0,24.0,29.79,West,270,9.0,14.0,14,0.00,,,0.00,,2013-03-16 20:52:00,
2013-03-16 14:01:00,77.0,24.0,29.79,West,270,6.0,9.0,14,0.00,,,0.00,,2013-03-16 21:01:00,
2013-03-16 14:12:00,77.0,24.0,29.79,West,270,6.0,9.0,14,0.00,,,0.00,,2013-03-16 21:12:00,
2013-03-16 14:22:00,77.0,24.0,29.79,WNW,284,6.0,15.0,14,0.00,,,0.00,,2013-03-16 21:22:00,
2013-03-16 14:32:00,78.0,25.0,29.79,West,270,7.0,9.0,14,0.00,,,0.00,,2013-03-16 21:32:00,
2013-03-16 14:42:00,78.0,25.0,29.79,West,270,7.0,9.0,14,0.00,,,0.00,,2013-03-16 21:42:00,
2013-03-16 14:52:00,78.0,25.0,29.79,West,270,11.0,14.0,14,0.00,,,0.00,,2013-03-16 21:52:00,
2013-03-16 15:02:00,78.0,25.0,29.79,NW,305,7.0,13.0,14,0.00,,,0.00,,2013-03-16 22:02:00,
2013-03-16 15:12:00,78.0,25.0,29.79,NW,305,7.0,13.0,14,0.00,,,0.00,,2013-03-16 22:12:00,
2013-03-16 15:22:00,79.0,26.0,29.76,West,270,7.0,14.0,14,0.00,,,0.00,,2013-03-16 22:22:00,
2013-03-16 15:32:00,79.0,24.0,29.76,NW,315,8.0,10.0,13,0.00,,,0.00,,2013-03-16 22:32:00,
2013-03-16 15:41:00,79.0,24.0,29.76,NW,315,8.0,10.0,13,0.00,,,0.00,,2013-03-16 22:41:00,
2013-03-16 15:52:00,79.0,24.0,29.76,West,270,8.0,13.0,13,0.00,,,0.00,,2013-03-16 22:52:00,
2013-03-16 16:01:00,79.0,24.0,29.76,West,270,10.0,15.0,13,0.00,,,0.00,,2013-03-16 23:01:00,
2013-03-16 16:12:00,79.0,24.0,29.76,West,270,10.0,15.0,13,0.00,,,0.00,,2013-03-16 23:12:00,
2013-03-16 16:22:00,79.0,24.0,29.76,WSW,244,10.0,15.0,13,0.00,,,0.00,,2013-03-16 23:22:00,
2013-03-16 16:32:00,80.0,25.0,29.76,West,270,11.0,13.0,13,0.00,,,0.00,,2013-03-16 23:32:00,
2013-03-16 16:41:00,80.0,25.0,29.76,West,270,11.0,13.0,13,0.00,,,0.00,,2013-03-16 23:41:00,
2013-03-16 16:52:00,80.0,25.0,29.76,WNW,290,10.0,16.0,13,0.00,,,0.00,,2013-03-16 23:52:00,
2013-03-16 17:01:00,80.0,25.0,29.76,West,275,11.0,14.0,13,0.00,,,0.00,,2013-03-17 00:01:00,
2013-03-16 17:11:00,80.0,25.0,29.76,West,275,11.0,14.0,13,0.00,,,0.00,,2013-03-17 00:11:00,
2013-03-16 17:22:00,79.0,24.0,29.76,West,280,12.0,15.0,13,0.00,,,0.00,,2013-03-17 00:22:00,
2013-03-16 17:32:00,79.0,26.0,29.76,West,270,12.0,16.0,14,0.00,,,0.00,,2013-03-17 00:32:00,
2013-03-16 17:42:00,79.0,26.0,29.76,West,270,12.0,16.0,14,0.00,,,0.00,,2013-03-17 00:42:00,
2013-03-16 17:51:00,78.0,25.0,29.76,West,262,13.0,18.0,14,0.00,,,0.00,,2013-03-17 00:51:00,
2013-03-16 18:02:00,78.0,25.0,29.76,West,262,13.0,18.0,14,0.00,,,0.00,,2013-03-17 01:02:00,
2013-03-16 18:11:00,78.0,25.0,29.76,West,262,13.0,18.0,14,0.00,,,0.00,,2013-03-17 01:11:00,
2013-03-16 18:21:00,75.0,23.0,29.76,West,270,14.0,23.0,14,0.00,,,0.00,,2013-03-17 01:21:00,
2013-03-16 18:31:00,74.0,22.0,29.76,West,270,15.0,20.0,14,0.00,,,0.00,,2013-03-17 01:31:00,
2013-03-16 18:42:00,74.0,22.0,29.76,West,270,15.0,20.0,14,0.00,,,0.00,,2013-03-17 01:42:00,
2013-03-16 18:52:00,73.0,23.0,29.76,West,270,15.0,20.0,15,0.00,,,0.00,,2013-03-17 01:52:00,
2013-03-16 19:02:00,71.0,21.0,29.78,West,270,13.0,21.0,15,0.00,,,0.00,,2013-03-17 02:02:00,
2013-03-16 19:11:00,71.0,21.0,29.78,West,270,13.0,21.0,15,0.00,,,0.00,,2013-03-17 02:11:00,
2013-03-16 19:21:00,70.0,20.0,29.76,West,270,14.0,22.0,15,0.00,,,0.00,,2013-03-17 02:21:00,
2013-03-16 19:32:00,69.0,21.0,29.76,West,265,18.0,22.0,16,0.00,,,0.00,,2013-03-17 02:32:00,
2013-03-16 19:42:00,69.0,21.0,29.76,West,265,18.0,22.0,16,0.00,,,0.00,,2013-03-17 02:42:00,
2013-03-16 19:52:00,69.0,21.0,29.76,West,270,14.0,18.0,16,0.00,,,0.00,,2013-03-17 02:52:00,
2013-03-16 20:01:00,67.0,19.0,29.79,West,270,12.0,15.0,16,0.00,,,0.00,,2013-03-17 03:01:00,
2013-03-16 20:11:00,67.0,19.0,29.79,West,270,12.0,15.0,16,0.00,,,0.00,,2013-03-17 03:11:00,
2013-03-16 20:21:00,66.0,19.0,29.79,West,270,14.0,22.0,16,0.00,,,0.00,,2013-03-17 03:21:00,
2013-03-16 20:33:00,66.0,19.0,29.79,West,270,14.0,20.0,16,0.00,,,0.00,,2013-03-17 03:33:00,
2013-03-16 20:42:00,66.0,19.0,29.79,West,270,14.0,20.0,16,0.00,,,0.00,,2013-03-17 03:42:00,
2013-03-16 20:52:00,65.0,18.0,29.81,West,270,14.0,17.0,16,0.00,,,0.00,,2013-03-17 03:52:00,
2013-03-16 21:02:00,65.0,18.0,29.79,West,270,16.0,20.0,16,0.00,,,0.00,,2013-03-17 04:02:00,
2013-03-16 21:12:00,65.0,18.0,29.79,West,270,16.0,20.0,16,0.00,,,0.00,,2013-03-17 04:12:00,
2013-03-16 21:22:00,64.0,18.0,29.81,West,270,11.0,17.0,17,0.00,,,0.00,,2013-03-17 04:22:00,
2013-03-16 21:32:00,63.0,18.0,29.82,West,270,14.0,21.0,17,0.00,,,0.00,,2013-03-17 04:32:00,
2013-03-16 21:42:00,63.0,18.0,29.82,West,270,14.0,21.0,17,0.00,,,0.00,,2013-03-17 04:42:00,
2013-03-16 21:53:00,62.0,17.0,29.82,West,274,16.0,22.0,17,0.00,,,0.00,,2013-03-17 04:53:00,
2013-03-16 22:02:00,62.0,17.0,29.79,West,270,19.0,25.0,17,0.00,,,0.00,,2013-03-17 05:02:00,
2013-03-16 22:11:00,62.0,17.0,29.79,West,270,19.0,25.0,17,0.00,,,0.00,,2013-03-17 05:11:00,
2013-03-16 22:21:00,62.0,17.0,29.82,West,270,19.0,28.0,17,0.00,,,0.00,,2013-03-17 05:21:00,
2013-03-16 22:32:00,62.0,17.0,29.82,West,270,17.0,26.0,17,0.00,,,0.00,,2013-03-17 05:32:00,
2013-03-16 22:42:00,62.0,17.0,29.82,West,270,17.0,26.0,17,0.00,,,0.00,,2013-03-17 05:42:00,
2013-03-16 22:52:00,61.0,16.0,29.82,West,270,15.0,21.0,17,0.00,,,0.00,,2013-03-17 05:52:00,
2013-03-16 23:01:00,62.0,17.0,29.82,West,269,16.0,21.0,17,0.00,,,0.00,,2013-03-17 06:01:00,
2013-03-16 23:12:00,62.0,17.0,29.82,West,269,16.0,21.0,17,0.00,,,0.00,,2013-03-17 06:12:00,
2013-03-16 23:21:00,62.0,17.0,29.79,West,264,18.0,25.0,17,0.00,,,0.00,,2013-03-17 06:21:00,
2013-03-16 23:31:00,62.0,17.0,29.82,West,265,16.0,23.0,17,0.00,,,0.00,,2013-03-17 06:31:00,
2013-03-16 23:42:00,62.0,17.0,29.82,West,265,16.0,23.0,17,0.00,,,0.00,,2013-03-17 06:42:00,
2013-03-16 23:52:00,63.0,18.0,29.82,West,265,15.0,22.0,17,0.00,,,0.00,,2013-03-17 06:52:00,